sensor_id;sensor_type;location;lat;lon;timestamp;P1;durP1;ratioP1;P2;durP2;ratioP2
38851;SDS011;24605;50.092;9.182;2022-08-19T00:00:35;24.25;;;17.63;;
38851;SDS011;24605;50.092;9.182;2022-08-19T00:03:02;25.38;;;18.10;;
38851;SDS011;24605;50.092;9.182;2022-08-19T00:05:29;29.13;;;20.73;;
38851;SDS011;24605;50.092;9.182;2022-08-19T00:07:56;26.50;;;19.58;;
38851;SDS011;24605;50.092;9.182;2022-08-19T00:10:23;28.38;;;20.25;;
38851;SDS011;24605;50.092;9.182;2022-08-19T00:12:51;27.98;;;19.27;;
38851;SDS011;24605;50.092;9.182;2022-08-19T00:15:18;28.45;;;20.73;;
38851;SDS011;24605;50.092;9.182;2022-08-19T00:17:46;24.63;;;18.90;;
38851;SDS011;24605;50.092;9.182;2022-08-19T00:20:15;28.52;;;20.10;;
38851;SDS011;24605;50.092;9.182;2022-08-19T00:22:44;26.80;;;20.05;;
38851;SDS011;24605;50.092;9.182;2022-08-19T00:25:12;28.55;;;20.35;;
38851;SDS011;24605;50.092;9.182;2022-08-19T00:27:38;28.63;;;20.50;;
38851;SDS011;24605;50.092;9.182;2022-08-19T00:30:07;27.30;;;20.42;;
38851;SDS011;24605;50.092;9.182;2022-08-19T00:32:35;32.25;;;21.35;;
38851;SDS011;24605;50.092;9.182;2022-08-19T00:35:02;26.85;;;19.92;;
38851;SDS011;24605;50.092;9.182;2022-08-19T00:37:30;27.73;;;19.85;;
38851;SDS011;24605;50.092;9.182;2022-08-19T00:39:58;27.13;;;19.75;;
38851;SDS011;24605;50.092;9.182;2022-08-19T00:42:24;29.27;;;20.20;;
38851;SDS011;24605;50.092;9.182;2022-08-19T00:44:53;29.63;;;20.33;;
38851;SDS011;24605;50.092;9.182;2022-08-19T00:47:21;29.58;;;20.42;;
38851;SDS011;24605;50.092;9.182;2022-08-19T00:49:48;29.25;;;21.58;;
38851;SDS011;24605;50.092;9.182;2022-08-19T00:52:19;36.08;;;22.20;;
38851;SDS011;24605;50.092;9.182;2022-08-19T00:54:49;28.05;;;20.02;;
38851;SDS011;24605;50.092;9.182;2022-08-19T00:57:18;30.60;;;22.35;;
38851;SDS011;24605;50.092;9.182;2022-08-19T00:59:52;31.10;;;21.38;;
38851;SDS011;24605;50.092;9.182;2022-08-19T01:02:22;30.55;;;22.27;;
38851;SDS011;24605;50.092;9.182;2022-08-19T01:04:50;30.48;;;21.83;;
38851;SDS011;24605;50.092;9.182;2022-08-19T01:07:16;29.83;;;21.10;;
38851;SDS011;24605;50.092;9.182;2022-08-19T01:09:44;33.47;;;23.05;;
38851;SDS011;24605;50.092;9.182;2022-08-19T01:12:10;30.15;;;21.15;;
38851;SDS011;24605;50.092;9.182;2022-08-19T01:14:37;32.42;;;23.38;;
38851;SDS011;24605;50.092;9.182;2022-08-19T01:17:06;36.17;;;24.23;;
38851;SDS011;24605;50.092;9.182;2022-08-19T01:19:36;33.30;;;23.10;;
38851;SDS011;24605;50.092;9.182;2022-08-19T01:22:06;35.45;;;23.40;;
38851;SDS011;24605;50.092;9.182;2022-08-19T01:24:39;23.67;;;16.87;;
38851;SDS011;24605;50.092;9.182;2022-08-19T01:27:06;34.17;;;23.27;;
38851;SDS011;24605;50.092;9.182;2022-08-19T01:29:34;30.60;;;21.90;;
38851;SDS011;24605;50.092;9.182;2022-08-19T01:32:04;33.22;;;22.50;;
38851;SDS011;24605;50.092;9.182;2022-08-19T01:34:31;31.77;;;21.75;;
38851;SDS011;24605;50.092;9.182;2022-08-19T01:36:59;33.35;;;23.40;;
38851;SDS011;24605;50.092;9.182;2022-08-19T01:39:27;34.70;;;23.05;;
38851;SDS011;24605;50.092;9.182;2022-08-19T01:41:55;31.60;;;21.95;;
38851;SDS011;24605;50.092;9.182;2022-08-19T01:44:22;31.77;;;22.83;;
38851;SDS011;24605;50.092;9.182;2022-08-19T01:46:50;30.80;;;22.58;;
38851;SDS011;24605;50.092;9.182;2022-08-19T01:49:17;33.20;;;23.13;;
38851;SDS011;24605;50.092;9.182;2022-08-19T01:51:47;35.03;;;23.10;;
38851;SDS011;24605;50.092;9.182;2022-08-19T01:54:14;31.33;;;23.27;;
38851;SDS011;24605;50.092;9.182;2022-08-19T01:56:42;34.15;;;22.27;;
38851;SDS011;24605;50.092;9.182;2022-08-19T01:59:13;30.30;;;20.67;;
38851;SDS011;24605;50.092;9.182;2022-08-19T02:01:42;33.83;;;23.33;;
38851;SDS011;24605;50.092;9.182;2022-08-19T02:04:08;33.35;;;23.10;;
38851;SDS011;24605;50.092;9.182;2022-08-19T02:06:35;33.63;;;22.70;;
38851;SDS011;24605;50.092;9.182;2022-08-19T02:09:02;34.03;;;23.42;;
38851;SDS011;24605;50.092;9.182;2022-08-19T02:11:29;35.25;;;24.52;;
38851;SDS011;24605;50.092;9.182;2022-08-19T02:13:59;30.63;;;22.35;;
38851;SDS011;24605;50.092;9.182;2022-08-19T02:16:28;32.47;;;22.00;;
38851;SDS011;24605;50.092;9.182;2022-08-19T02:18:55;31.20;;;22.10;;
38851;SDS011;24605;50.092;9.182;2022-08-19T02:21:22;32.58;;;21.58;;
38851;SDS011;24605;50.092;9.182;2022-08-19T02:23:49;33.33;;;23.33;;
38851;SDS011;24605;50.092;9.182;2022-08-19T02:26:16;33.95;;;22.05;;
38851;SDS011;24605;50.092;9.182;2022-08-19T02:28:43;34.58;;;23.10;;
38851;SDS011;24605;50.092;9.182;2022-08-19T02:31:11;33.20;;;22.60;;
38851;SDS011;24605;50.092;9.182;2022-08-19T02:33:41;33.25;;;22.90;;
38851;SDS011;24605;50.092;9.182;2022-08-19T02:36:08;33.05;;;23.00;;
38851;SDS011;24605;50.092;9.182;2022-08-19T02:38:37;33.03;;;23.77;;
38851;SDS011;24605;50.092;9.182;2022-08-19T02:41:04;35.20;;;23.73;;
38851;SDS011;24605;50.092;9.182;2022-08-19T02:43:35;33.15;;;22.20;;
38851;SDS011;24605;50.092;9.182;2022-08-19T02:46:02;33.15;;;22.58;;
38851;SDS011;24605;50.092;9.182;2022-08-19T02:48:37;31.45;;;21.75;;
38851;SDS011;24605;50.092;9.182;2022-08-19T02:51:05;32.63;;;22.27;;
38851;SDS011;24605;50.092;9.182;2022-08-19T02:53:31;33.88;;;24.48;;
38851;SDS011;24605;50.092;9.182;2022-08-19T02:55:58;34.17;;;22.70;;
38851;SDS011;24605;50.092;9.182;2022-08-19T02:58:25;35.47;;;22.75;;
38851;SDS011;24605;50.092;9.182;2022-08-19T03:00:53;38.83;;;22.40;;
38851;SDS011;24605;50.092;9.182;2022-08-19T03:03:21;32.63;;;22.23;;
38851;SDS011;24605;50.092;9.182;2022-08-19T03:05:48;31.13;;;22.48;;
38851;SDS011;24605;50.092;9.182;2022-08-19T03:08:16;30.95;;;21.17;;
38851;SDS011;24605;50.092;9.182;2022-08-19T03:10:43;31.50;;;21.08;;
38851;SDS011;24605;50.092;9.182;2022-08-19T03:13:11;31.25;;;20.48;;
38851;SDS011;24605;50.092;9.182;2022-08-19T03:15:40;30.05;;;20.83;;
38851;SDS011;24605;50.092;9.182;2022-08-19T03:18:07;30.80;;;22.08;;
38851;SDS011;24605;50.092;9.182;2022-08-19T03:20:34;30.92;;;21.00;;
38851;SDS011;24605;50.092;9.182;2022-08-19T03:23:06;31.90;;;21.83;;
38851;SDS011;24605;50.092;9.182;2022-08-19T03:25:37;31.65;;;22.23;;
38851;SDS011;24605;50.092;9.182;2022-08-19T03:28:05;34.15;;;21.63;;
38851;SDS011;24605;50.092;9.182;2022-08-19T03:30:32;29.98;;;21.38;;
38851;SDS011;24605;50.092;9.182;2022-08-19T03:32:59;34.63;;;22.35;;
38851;SDS011;24605;50.092;9.182;2022-08-19T03:35:25;29.67;;;21.55;;
38851;SDS011;24605;50.092;9.182;2022-08-19T03:37:52;31.85;;;20.70;;
38851;SDS011;24605;50.092;9.182;2022-08-19T03:40:18;30.15;;;21.45;;
38851;SDS011;24605;50.092;9.182;2022-08-19T03:42:47;30.83;;;20.67;;
38851;SDS011;24605;50.092;9.182;2022-08-19T03:45:15;28.33;;;20.65;;
38851;SDS011;24605;50.092;9.182;2022-08-19T03:47:41;29.67;;;20.80;;
38851;SDS011;24605;50.092;9.182;2022-08-19T03:50:08;28.77;;;21.48;;
38851;SDS011;24605;50.092;9.182;2022-08-19T03:52:35;30.98;;;20.33;;
38851;SDS011;24605;50.092;9.182;2022-08-19T03:55:02;30.23;;;20.65;;
38851;SDS011;24605;50.092;9.182;2022-08-19T03:57:29;30.65;;;21.05;;
38851;SDS011;24605;50.092;9.182;2022-08-19T03:59:58;29.23;;;20.55;;
38851;SDS011;24605;50.092;9.182;2022-08-19T04:02:25;32.67;;;20.08;;
38851;SDS011;24605;50.092;9.182;2022-08-19T04:04:52;29.88;;;21.70;;
38851;SDS011;24605;50.092;9.182;2022-08-19T04:07:20;30.00;;;21.23;;
38851;SDS011;24605;50.092;9.182;2022-08-19T04:09:46;33.15;;;20.92;;
38851;SDS011;24605;50.092;9.182;2022-08-19T04:12:14;29.13;;;20.20;;
38851;SDS011;24605;50.092;9.182;2022-08-19T04:14:40;28.40;;;19.85;;
38851;SDS011;24605;50.092;9.182;2022-08-19T04:17:08;28.20;;;20.30;;
38851;SDS011;24605;50.092;9.182;2022-08-19T04:19:36;28.67;;;20.65;;
38851;SDS011;24605;50.092;9.182;2022-08-19T04:22:03;29.52;;;20.42;;
38851;SDS011;24605;50.092;9.182;2022-08-19T04:24:31;29.63;;;20.55;;
38851;SDS011;24605;50.092;9.182;2022-08-19T04:26:59;29.30;;;19.85;;
38851;SDS011;24605;50.092;9.182;2022-08-19T04:29:26;28.55;;;19.95;;
38851;SDS011;24605;50.092;9.182;2022-08-19T04:31:55;28.25;;;20.30;;
38851;SDS011;24605;50.092;9.182;2022-08-19T04:34:25;29.55;;;21.23;;
38851;SDS011;24605;50.092;9.182;2022-08-19T04:36:53;26.63;;;19.30;;
38851;SDS011;24605;50.092;9.182;2022-08-19T04:39:22;26.88;;;19.40;;
38851;SDS011;24605;50.092;9.182;2022-08-19T04:42:11;29.67;;;20.35;;
38851;SDS011;24605;50.092;9.182;2022-08-19T04:44:55;27.77;;;19.58;;
38851;SDS011;24605;50.092;9.182;2022-08-19T04:47:23;27.48;;;19.70;;
38851;SDS011;24605;50.092;9.182;2022-08-19T04:49:51;27.63;;;19.35;;
38851;SDS011;24605;50.092;9.182;2022-08-19T04:52:18;26.83;;;18.35;;
38851;SDS011;24605;50.092;9.182;2022-08-19T04:54:44;26.83;;;19.42;;
38851;SDS011;24605;50.092;9.182;2022-08-19T04:57:11;28.10;;;19.33;;
38851;SDS011;24605;50.092;9.182;2022-08-19T04:59:38;27.45;;;19.40;;
38851;SDS011;24605;50.092;9.182;2022-08-19T05:02:06;30.35;;;20.30;;
38851;SDS011;24605;50.092;9.182;2022-08-19T05:04:33;26.83;;;19.35;;
38851;SDS011;24605;50.092;9.182;2022-08-19T05:07:05;28.17;;;18.65;;
38851;SDS011;24605;50.092;9.182;2022-08-19T05:09:31;25.15;;;18.30;;
38851;SDS011;24605;50.092;9.182;2022-08-19T05:11:58;26.17;;;19.33;;
38851;SDS011;24605;50.092;9.182;2022-08-19T05:14:25;26.30;;;18.77;;
38851;SDS011;24605;50.092;9.182;2022-08-19T05:16:51;28.40;;;18.38;;
38851;SDS011;24605;50.092;9.182;2022-08-19T05:19:17;27.77;;;18.65;;
38851;SDS011;24605;50.092;9.182;2022-08-19T05:22:02;26.10;;;18.45;;
38851;SDS011;24605;50.092;9.182;2022-08-19T05:27:14;26.88;;;19.10;;
38851;SDS011;24605;50.092;9.182;2022-08-19T05:29:40;23.33;;;17.65;;
38851;SDS011;24605;50.092;9.182;2022-08-19T05:32:07;25.77;;;18.38;;
38851;SDS011;24605;50.092;9.182;2022-08-19T05:34:35;24.95;;;18.65;;
38851;SDS011;24605;50.092;9.182;2022-08-19T05:37:04;25.90;;;18.73;;
38851;SDS011;24605;50.092;9.182;2022-08-19T05:39:33;24.92;;;17.25;;
38851;SDS011;24605;50.092;9.182;2022-08-19T05:42:03;25.77;;;17.77;;
38851;SDS011;24605;50.092;9.182;2022-08-19T05:44:33;26.90;;;17.98;;
38851;SDS011;24605;50.092;9.182;2022-08-19T05:47:02;21.95;;;16.52;;
38851;SDS011;24605;50.092;9.182;2022-08-19T05:49:30;23.75;;;17.85;;
38851;SDS011;24605;50.092;9.182;2022-08-19T05:51:58;26.63;;;18.05;;
38851;SDS011;24605;50.092;9.182;2022-08-19T05:54:27;21.10;;;16.05;;
38851;SDS011;24605;50.092;9.182;2022-08-19T05:56:53;24.58;;;17.20;;
38851;SDS011;24605;50.092;9.182;2022-08-19T05:59:21;25.13;;;16.95;;
38851;SDS011;24605;50.092;9.182;2022-08-19T06:01:49;26.73;;;17.35;;
38851;SDS011;24605;50.092;9.182;2022-08-19T06:04:19;22.88;;;16.63;;
38851;SDS011;24605;50.092;9.182;2022-08-19T06:06:46;23.13;;;16.77;;
38851;SDS011;24605;50.092;9.182;2022-08-19T06:09:14;20.75;;;16.17;;
38851;SDS011;24605;50.092;9.182;2022-08-19T06:11:43;24.38;;;16.42;;
38851;SDS011;24605;50.092;9.182;2022-08-19T06:14:12;21.95;;;16.45;;
38851;SDS011;24605;50.092;9.182;2022-08-19T06:16:42;21.67;;;16.02;;
38851;SDS011;24605;50.092;9.182;2022-08-19T06:19:10;18.33;;;14.45;;
38851;SDS011;24605;50.092;9.182;2022-08-19T06:21:40;22.25;;;15.48;;
38851;SDS011;24605;50.092;9.182;2022-08-19T06:24:10;19.70;;;15.95;;
38851;SDS011;24605;50.092;9.182;2022-08-19T06:26:38;24.42;;;16.40;;
38851;SDS011;24605;50.092;9.182;2022-08-19T06:29:06;21.83;;;14.82;;
38851;SDS011;24605;50.092;9.182;2022-08-19T06:31:34;22.33;;;15.63;;
38851;SDS011;24605;50.092;9.182;2022-08-19T06:34:03;24.00;;;15.20;;
38851;SDS011;24605;50.092;9.182;2022-08-19T06:36:31;21.48;;;15.93;;
38851;SDS011;24605;50.092;9.182;2022-08-19T06:38:59;20.48;;;14.70;;
38851;SDS011;24605;50.092;9.182;2022-08-19T06:41:27;21.75;;;15.63;;
38851;SDS011;24605;50.092;9.182;2022-08-19T06:43:55;21.48;;;15.02;;
38851;SDS011;24605;50.092;9.182;2022-08-19T06:46:21;19.63;;;14.50;;
38851;SDS011;24605;50.092;9.182;2022-08-19T06:48:48;21.73;;;15.75;;
38851;SDS011;24605;50.092;9.182;2022-08-19T06:51:20;20.92;;;15.48;;
38851;SDS011;24605;50.092;9.182;2022-08-19T06:53:49;24.23;;;16.77;;
38851;SDS011;24605;50.092;9.182;2022-08-19T06:56:17;21.25;;;15.10;;
38851;SDS011;24605;50.092;9.182;2022-08-19T06:58:46;23.65;;;15.07;;
38851;SDS011;24605;50.092;9.182;2022-08-19T07:01:16;22.60;;;15.23;;
38851;SDS011;24605;50.092;9.182;2022-08-19T07:03:43;26.08;;;15.38;;
38851;SDS011;24605;50.092;9.182;2022-08-19T07:06:12;20.90;;;15.27;;
38851;SDS011;24605;50.092;9.182;2022-08-19T07:08:44;20.92;;;15.20;;
38851;SDS011;24605;50.092;9.182;2022-08-19T07:11:12;23.73;;;15.50;;
38851;SDS011;24605;50.092;9.182;2022-08-19T07:13:42;23.15;;;15.38;;
38851;SDS011;24605;50.092;9.182;2022-08-19T07:16:14;26.55;;;15.50;;
38851;SDS011;24605;50.092;9.182;2022-08-19T07:18:42;22.05;;;15.07;;
38851;SDS011;24605;50.092;9.182;2022-08-19T07:21:10;18.92;;;14.63;;
38851;SDS011;24605;50.092;9.182;2022-08-19T07:23:40;18.60;;;13.35;;
38851;SDS011;24605;50.092;9.182;2022-08-19T07:26:08;24.05;;;14.23;;
38851;SDS011;24605;50.092;9.182;2022-08-19T07:28:37;22.45;;;14.70;;
38851;SDS011;24605;50.092;9.182;2022-08-19T07:31:05;20.45;;;13.98;;
38851;SDS011;24605;50.092;9.182;2022-08-19T07:33:32;18.80;;;14.20;;
38851;SDS011;24605;50.092;9.182;2022-08-19T07:36:00;18.70;;;14.38;;
38851;SDS011;24605;50.092;9.182;2022-08-19T07:38:27;22.38;;;14.85;;
38851;SDS011;24605;50.092;9.182;2022-08-19T07:40:53;20.48;;;13.90;;
38851;SDS011;24605;50.092;9.182;2022-08-19T07:43:21;18.42;;;13.73;;
38851;SDS011;24605;50.092;9.182;2022-08-19T07:45:51;15.88;;;13.10;;
38851;SDS011;24605;50.092;9.182;2022-08-19T07:48:21;18.80;;;14.23;;
38851;SDS011;24605;50.092;9.182;2022-08-19T07:50:48;21.42;;;13.48;;
38851;SDS011;24605;50.092;9.182;2022-08-19T07:53:15;19.30;;;13.50;;
38851;SDS011;24605;50.092;9.182;2022-08-19T07:55:41;19.42;;;13.27;;
38851;SDS011;24605;50.092;9.182;2022-08-19T07:58:08;19.05;;;13.27;;
38851;SDS011;24605;50.092;9.182;2022-08-19T08:00:37;19.65;;;13.75;;
38851;SDS011;24605;50.092;9.182;2022-08-19T08:03:03;20.15;;;14.30;;
38851;SDS011;24605;50.092;9.182;2022-08-19T08:05:30;23.08;;;14.32;;
38851;SDS011;24605;50.092;9.182;2022-08-19T08:08:14;19.20;;;13.52;;
38851;SDS011;24605;50.092;9.182;2022-08-19T08:11:03;18.90;;;14.40;;
38851;SDS011;24605;50.092;9.182;2022-08-19T08:13:31;20.48;;;13.30;;
38851;SDS011;24605;50.092;9.182;2022-08-19T08:16:01;19.10;;;13.35;;
38851;SDS011;24605;50.092;9.182;2022-08-19T08:18:28;17.83;;;12.18;;
38851;SDS011;24605;50.092;9.182;2022-08-19T08:20:54;17.13;;;12.60;;
38851;SDS011;24605;50.092;9.182;2022-08-19T08:23:21;15.63;;;11.88;;
38851;SDS011;24605;50.092;9.182;2022-08-19T08:25:49;17.23;;;12.13;;
38851;SDS011;24605;50.092;9.182;2022-08-19T08:28:17;18.55;;;12.18;;
38851;SDS011;24605;50.092;9.182;2022-08-19T08:30:44;17.23;;;11.85;;
38851;SDS011;24605;50.092;9.182;2022-08-19T08:33:13;15.23;;;11.82;;
38851;SDS011;24605;50.092;9.182;2022-08-19T08:35:42;16.95;;;11.35;;
38851;SDS011;24605;50.092;9.182;2022-08-19T08:38:10;17.23;;;11.50;;
38851;SDS011;24605;50.092;9.182;2022-08-19T08:40:39;17.73;;;11.50;;
38851;SDS011;24605;50.092;9.182;2022-08-19T08:43:13;15.30;;;11.52;;
38851;SDS011;24605;50.092;9.182;2022-08-19T08:45:49;18.67;;;12.15;;
38851;SDS011;24605;50.092;9.182;2022-08-19T08:48:23;16.10;;;11.03;;
38851;SDS011;24605;50.092;9.182;2022-08-19T08:50:56;15.43;;;10.73;;
38851;SDS011;24605;50.092;9.182;2022-08-19T08:53:25;17.08;;;11.30;;
38851;SDS011;24605;50.092;9.182;2022-08-19T08:55:52;13.10;;;10.32;;
38851;SDS011;24605;50.092;9.182;2022-08-19T08:58:21;15.00;;;10.60;;
38851;SDS011;24605;50.092;9.182;2022-08-19T09:00:54;15.98;;;11.10;;
38851;SDS011;24605;50.092;9.182;2022-08-19T09:03:21;15.55;;;10.07;;
38851;SDS011;24605;50.092;9.182;2022-08-19T09:05:54;15.52;;;10.73;;
38851;SDS011;24605;50.092;9.182;2022-08-19T09:08:28;12.57;;;8.73;;
38851;SDS011;24605;50.092;9.182;2022-08-19T09:11:06;11.50;;;8.23;;
38851;SDS011;24605;50.092;9.182;2022-08-19T09:13:37;14.32;;;7.85;;
38851;SDS011;24605;50.092;9.182;2022-08-19T09:16:12;11.63;;;6.80;;
38851;SDS011;24605;50.092;9.182;2022-08-19T09:18:43;14.00;;;7.80;;
38851;SDS011;24605;50.092;9.182;2022-08-19T09:21:12;10.23;;;7.45;;
38851;SDS011;24605;50.092;9.182;2022-08-19T09:23:39;9.50;;;7.13;;
38851;SDS011;24605;50.092;9.182;2022-08-19T09:26:08;10.85;;;6.93;;
38851;SDS011;24605;50.092;9.182;2022-08-19T09:28:38;10.48;;;6.35;;
38851;SDS011;24605;50.092;9.182;2022-08-19T09:31:08;10.00;;;7.30;;
38851;SDS011;24605;50.092;9.182;2022-08-19T09:33:35;11.68;;;6.90;;
38851;SDS011;24605;50.092;9.182;2022-08-19T09:36:04;11.90;;;7.20;;
38851;SDS011;24605;50.092;9.182;2022-08-19T09:38:32;10.18;;;6.50;;
38851;SDS011;24605;50.092;9.182;2022-08-19T09:41:01;10.60;;;7.10;;
38851;SDS011;24605;50.092;9.182;2022-08-19T09:43:29;11.20;;;6.35;;
38851;SDS011;24605;50.092;9.182;2022-08-19T09:45:56;8.43;;;5.75;;
38851;SDS011;24605;50.092;9.182;2022-08-19T09:48:23;9.20;;;6.03;;
38851;SDS011;24605;50.092;9.182;2022-08-19T09:50:49;9.85;;;6.10;;
38851;SDS011;24605;50.092;9.182;2022-08-19T09:53:18;7.82;;;5.25;;
38851;SDS011;24605;50.092;9.182;2022-08-19T09:55:47;9.77;;;6.13;;
38851;SDS011;24605;50.092;9.182;2022-08-19T09:58:14;11.43;;;5.95;;
38851;SDS011;24605;50.092;9.182;2022-08-19T10:00:41;10.30;;;5.88;;
38851;SDS011;24605;50.092;9.182;2022-08-19T10:03:07;9.57;;;4.72;;
38851;SDS011;24605;50.092;9.182;2022-08-19T10:05:34;9.98;;;4.00;;
38851;SDS011;24605;50.092;9.182;2022-08-19T10:08:18;6.00;;;4.28;;
38851;SDS011;24605;50.092;9.182;2022-08-19T10:10:48;8.27;;;4.47;;
38851;SDS011;24605;50.092;9.182;2022-08-19T10:13:17;7.57;;;4.00;;
38851;SDS011;24605;50.092;9.182;2022-08-19T10:15:50;5.63;;;3.28;;
38851;SDS011;24605;50.092;9.182;2022-08-19T10:18:18;4.88;;;2.65;;
38851;SDS011;24605;50.092;9.182;2022-08-19T10:20:46;6.57;;;3.47;;
38851;SDS011;24605;50.092;9.182;2022-08-19T10:23:15;4.72;;;2.80;;
38851;SDS011;24605;50.092;9.182;2022-08-19T10:25:44;4.30;;;2.40;;
38851;SDS011;24605;50.092;9.182;2022-08-19T10:28:10;5.03;;;2.80;;
38851;SDS011;24605;50.092;9.182;2022-08-19T10:30:37;3.85;;;2.55;;
38851;SDS011;24605;50.092;9.182;2022-08-19T10:33:05;5.22;;;2.80;;
38851;SDS011;24605;50.092;9.182;2022-08-19T10:35:32;3.75;;;2.47;;
38851;SDS011;24605;50.092;9.182;2022-08-19T10:37:59;4.20;;;2.25;;
38851;SDS011;24605;50.092;9.182;2022-08-19T10:40:26;5.22;;;2.28;;
38851;SDS011;24605;50.092;9.182;2022-08-19T10:42:55;4.47;;;1.95;;
38851;SDS011;24605;50.092;9.182;2022-08-19T10:45:22;3.53;;;2.33;;
38851;SDS011;24605;50.092;9.182;2022-08-19T10:47:50;5.22;;;2.42;;
38851;SDS011;24605;50.092;9.182;2022-08-19T10:50:18;4.55;;;2.22;;
38851;SDS011;24605;50.092;9.182;2022-08-19T10:53:03;5.80;;;2.92;;
38851;SDS011;24605;50.092;9.182;2022-08-19T10:55:33;3.63;;;2.17;;
38851;SDS011;24605;50.092;9.182;2022-08-19T10:58:20;6.25;;;2.88;;
38851;SDS011;24605;50.092;9.182;2022-08-19T11:00:51;6.68;;;2.63;;
38851;SDS011;24605;50.092;9.182;2022-08-19T11:03:19;5.55;;;3.05;;
38851;SDS011;24605;50.092;9.182;2022-08-19T11:05:46;5.25;;;2.70;;
38851;SDS011;24605;50.092;9.182;2022-08-19T11:08:13;4.40;;;2.70;;
38851;SDS011;24605;50.092;9.182;2022-08-19T11:10:41;4.40;;;2.60;;
38851;SDS011;24605;50.092;9.182;2022-08-19T11:13:09;5.03;;;2.75;;
38851;SDS011;24605;50.092;9.182;2022-08-19T11:15:37;4.35;;;2.97;;
38851;SDS011;24605;50.092;9.182;2022-08-19T11:18:03;4.30;;;2.97;;
38851;SDS011;24605;50.092;9.182;2022-08-19T11:20:30;5.38;;;3.10;;
38851;SDS011;24605;50.092;9.182;2022-08-19T11:22:57;5.40;;;3.03;;
38851;SDS011;24605;50.092;9.182;2022-08-19T11:25:23;5.32;;;2.88;;
38851;SDS011;24605;50.092;9.182;2022-08-19T11:27:50;6.57;;;3.47;;
38851;SDS011;24605;50.092;9.182;2022-08-19T11:30:17;6.25;;;2.38;;
38851;SDS011;24605;50.092;9.182;2022-08-19T11:32:44;3.70;;;2.55;;
38851;SDS011;24605;50.092;9.182;2022-08-19T11:35:11;4.68;;;2.60;;
38851;SDS011;24605;50.092;9.182;2022-08-19T11:37:37;4.05;;;2.45;;
38851;SDS011;24605;50.092;9.182;2022-08-19T11:40:05;5.80;;;3.00;;
38851;SDS011;24605;50.092;9.182;2022-08-19T11:42:32;5.65;;;2.90;;
38851;SDS011;24605;50.092;9.182;2022-08-19T11:45:16;7.50;;;2.90;;
38851;SDS011;24605;50.092;9.182;2022-08-19T11:47:44;4.68;;;2.42;;
38851;SDS011;24605;50.092;9.182;2022-08-19T11:50:15;5.65;;;2.53;;
38851;SDS011;24605;50.092;9.182;2022-08-19T11:52:42;4.43;;;2.40;;
38851;SDS011;24605;50.092;9.182;2022-08-19T11:55:10;5.28;;;2.95;;
38851;SDS011;24605;50.092;9.182;2022-08-19T11:57:37;6.97;;;2.92;;
38851;SDS011;24605;50.092;9.182;2022-08-19T12:00:06;3.42;;;2.28;;
38851;SDS011;24605;50.092;9.182;2022-08-19T12:02:33;6.15;;;2.47;;
38851;SDS011;24605;50.092;9.182;2022-08-19T12:05:01;3.60;;;2.60;;
38851;SDS011;24605;50.092;9.182;2022-08-19T12:07:28;4.25;;;2.50;;
38851;SDS011;24605;50.092;9.182;2022-08-19T12:09:56;4.80;;;2.65;;
38851;SDS011;24605;50.092;9.182;2022-08-19T12:12:23;4.15;;;2.30;;
38851;SDS011;24605;50.092;9.182;2022-08-19T12:14:49;5.07;;;2.78;;
38851;SDS011;24605;50.092;9.182;2022-08-19T12:17:21;6.00;;;2.53;;
38851;SDS011;24605;50.092;9.182;2022-08-19T12:19:48;4.63;;;3.08;;
38851;SDS011;24605;50.092;9.182;2022-08-19T12:22:16;4.63;;;3.00;;
38851;SDS011;24605;50.092;9.182;2022-08-19T12:24:43;6.30;;;3.03;;
38851;SDS011;24605;50.092;9.182;2022-08-19T12:27:11;5.53;;;2.90;;
38851;SDS011;24605;50.092;9.182;2022-08-19T12:29:37;5.65;;;2.88;;
38851;SDS011;24605;50.092;9.182;2022-08-19T12:32:04;4.78;;;3.00;;
38851;SDS011;24605;50.092;9.182;2022-08-19T12:34:31;5.75;;;2.75;;
38851;SDS011;24605;50.092;9.182;2022-08-19T12:37:00;6.03;;;3.20;;
38851;SDS011;24605;50.092;9.182;2022-08-19T12:39:29;4.05;;;2.85;;
38851;SDS011;24605;50.092;9.182;2022-08-19T12:41:56;5.25;;;3.00;;
38851;SDS011;24605;50.092;9.182;2022-08-19T12:44:22;3.85;;;2.58;;
38851;SDS011;24605;50.092;9.182;2022-08-19T12:46:49;4.28;;;3.03;;
38851;SDS011;24605;50.092;9.182;2022-08-19T12:49:16;4.15;;;2.67;;
38851;SDS011;24605;50.092;9.182;2022-08-19T12:51:42;5.30;;;2.90;;
38851;SDS011;24605;50.092;9.182;2022-08-19T12:54:09;3.80;;;2.67;;
38851;SDS011;24605;50.092;9.182;2022-08-19T12:56:37;5.50;;;2.97;;
38851;SDS011;24605;50.092;9.182;2022-08-19T12:59:03;4.63;;;2.80;;
38851;SDS011;24605;50.092;9.182;2022-08-19T13:01:31;4.32;;;2.80;;
38851;SDS011;24605;50.092;9.182;2022-08-19T13:03:58;5.72;;;2.63;;
38851;SDS011;24605;50.092;9.182;2022-08-19T13:06:25;3.60;;;2.63;;
38851;SDS011;24605;50.092;9.182;2022-08-19T13:08:51;4.32;;;2.70;;
38851;SDS011;24605;50.092;9.182;2022-08-19T13:11:19;4.45;;;2.75;;
38851;SDS011;24605;50.092;9.182;2022-08-19T13:13:51;5.63;;;2.83;;
38851;SDS011;24605;50.092;9.182;2022-08-19T13:16:18;4.32;;;2.90;;
38851;SDS011;24605;50.092;9.182;2022-08-19T13:18:46;5.20;;;2.60;;
38851;SDS011;24605;50.092;9.182;2022-08-19T13:21:14;4.38;;;3.03;;
38851;SDS011;24605;50.092;9.182;2022-08-19T13:23:41;5.00;;;3.03;;
38851;SDS011;24605;50.092;9.182;2022-08-19T13:26:08;3.90;;;2.90;;
38851;SDS011;24605;50.092;9.182;2022-08-19T13:28:36;5.22;;;3.00;;
38851;SDS011;24605;50.092;9.182;2022-08-19T13:31:23;4.18;;;2.60;;
38851;SDS011;24605;50.092;9.182;2022-08-19T13:34:08;3.95;;;2.63;;
38851;SDS011;24605;50.092;9.182;2022-08-19T13:36:35;5.13;;;2.70;;
38851;SDS011;24605;50.092;9.182;2022-08-19T13:39:03;5.45;;;2.85;;
38851;SDS011;24605;50.092;9.182;2022-08-19T13:41:30;5.20;;;2.70;;
38851;SDS011;24605;50.092;9.182;2022-08-19T13:43:58;5.80;;;2.55;;
38851;SDS011;24605;50.092;9.182;2022-08-19T13:46:26;3.95;;;2.70;;
38851;SDS011;24605;50.092;9.182;2022-08-19T13:48:54;5.15;;;2.60;;
38851;SDS011;24605;50.092;9.182;2022-08-19T13:51:22;7.45;;;2.88;;
38851;SDS011;24605;50.092;9.182;2022-08-19T13:53:49;6.38;;;2.75;;
38851;SDS011;24605;50.092;9.182;2022-08-19T13:56:16;4.60;;;2.97;;
38851;SDS011;24605;50.092;9.182;2022-08-19T13:58:44;4.20;;;2.80;;
38851;SDS011;24605;50.092;9.182;2022-08-19T14:01:11;5.15;;;2.60;;
38851;SDS011;24605;50.092;9.182;2022-08-19T14:03:39;5.63;;;3.00;;
38851;SDS011;24605;50.092;9.182;2022-08-19T14:06:05;4.18;;;2.88;;
38851;SDS011;24605;50.092;9.182;2022-08-19T14:08:32;3.92;;;2.55;;
38851;SDS011;24605;50.092;9.182;2022-08-19T14:10:58;5.57;;;2.78;;
38851;SDS011;24605;50.092;9.182;2022-08-19T14:13:25;5.38;;;3.10;;
38851;SDS011;24605;50.092;9.182;2022-08-19T14:15:52;6.13;;;2.80;;
38851;SDS011;24605;50.092;9.182;2022-08-19T14:18:19;5.40;;;3.30;;
38851;SDS011;24605;50.092;9.182;2022-08-19T14:20:47;4.22;;;2.90;;
38851;SDS011;24605;50.092;9.182;2022-08-19T14:23:14;4.32;;;2.90;;
38851;SDS011;24605;50.092;9.182;2022-08-19T14:25:40;7.40;;;2.92;;
38851;SDS011;24605;50.092;9.182;2022-08-19T14:28:07;4.90;;;2.90;;
38851;SDS011;24605;50.092;9.182;2022-08-19T14:30:34;3.30;;;2.60;;
38851;SDS011;24605;50.092;9.182;2022-08-19T14:33:03;5.70;;;2.85;;
38851;SDS011;24605;50.092;9.182;2022-08-19T14:35:32;5.05;;;2.85;;
38851;SDS011;24605;50.092;9.182;2022-08-19T14:38:01;5.53;;;2.80;;
38851;SDS011;24605;50.092;9.182;2022-08-19T14:40:29;5.40;;;2.60;;